sensor_id;sensor_type;location;lat;lon;timestamp;temperature;humidity
17178;DHT22;8704;52.006;4.374;2023-07-20T00:02:28;16.80;99.90
17178;DHT22;8704;52.006;4.374;2023-07-20T00:04:57;16.80;99.90
17178;DHT22;8704;52.006;4.374;2023-07-20T00:07:25;16.80;99.90
17178;DHT22;8704;52.006;4.374;2023-07-20T00:09:53;16.70;99.90
17178;DHT22;8704;52.006;4.374;2023-07-20T00:12:21;16.70;99.90
17178;DHT22;8704;52.006;4.374;2023-07-20T00:14:51;16.60;99.90
17178;DHT22;8704;52.006;4.374;2023-07-20T00:17:20;16.60;99.90
17178;DHT22;8704;52.006;4.374;2023-07-20T00:19:50;16.60;99.90
17178;DHT22;8704;52.006;4.374;2023-07-20T00:22:18;16.50;99.90
17178;DHT22;8704;52.006;4.374;2023-07-20T00:24:46;16.50;99.90
17178;DHT22;8704;52.006;4.374;2023-07-20T00:27:14;16.40;99.90
17178;DHT22;8704;52.006;4.374;2023-07-20T00:29:42;16.40;99.90
17178;DHT22;8704;52.006;4.374;2023-07-20T00:32:10;16.40;99.90
17178;DHT22;8704;52.006;4.374;2023-07-20T00:34:38;16.40;99.90
17178;DHT22;8704;52.006;4.374;2023-07-20T00:37:08;16.30;99.90
17178;DHT22;8704;52.006;4.374;2023-07-20T00:39:36;16.20;99.90
17178;DHT22;8704;52.006;4.374;2023-07-20T00:42:05;16.20;99.90
17178;DHT22;8704;52.006;4.374;2023-07-20T00:44:33;16.20;99.90
17178;DHT22;8704;52.006;4.374;2023-07-20T00:47:01;16.10;99.90
17178;DHT22;8704;52.006;4.374;2023-07-20T00:49:29;16.10;99.90
17178;DHT22;8704;52.006;4.374;2023-07-20T00:51:58;16.00;99.90
17178;DHT22;8704;52.006;4.374;2023-07-20T00:54:27;16.00;99.90
17178;DHT22;8704;52.006;4.374;2023-07-20T00:56:56;16.00;99.90
17178;DHT22;8704;52.006;4.374;2023-07-20T00:59:25;16.00;99.90
17178;DHT22;8704;52.006;4.374;2023-07-20T01:01:53;15.90;99.90
17178;DHT22;8704;52.006;4.374;2023-07-20T01:04:21;15.90;99.90
17178;DHT22;8704;52.006;4.374;2023-07-20T01:06:56;15.80;99.90
17178;DHT22;8704;52.006;4.374;2023-07-20T01:09:31;15.80;99.90
17178;DHT22;8704;52.006;4.374;2023-07-20T01:12:06;15.80;99.90
17178;DHT22;8704;52.006;4.374;2023-07-20T01:14:35;15.70;99.90
17178;DHT22;8704;52.006;4.374;2023-07-20T01:17:04;15.70;99.90
17178;DHT22;8704;52.006;4.374;2023-07-20T01:19:32;15.60;99.90
17178;DHT22;8704;52.006;4.374;2023-07-20T01:22:06;15.60;99.90
17178;DHT22;8704;52.006;4.374;2023-07-20T01:25:08;15.60;99.90
17178;DHT22;8704;52.006;4.374;2023-07-20T01:28:18;15.60;99.90
17178;DHT22;8704;52.006;4.374;2023-07-20T01:30:57;15.50;99.90
17178;DHT22;8704;52.006;4.374;2023-07-20T01:33:30;15.50;99.90
17178;DHT22;8704;52.006;4.374;2023-07-20T01:36:00;15.50;99.90
17178;DHT22;8704;52.006;4.374;2023-07-20T01:38:29;15.50;99.90
17178;DHT22;8704;52.006;4.374;2023-07-20T01:40:58;15.50;99.90
17178;DHT22;8704;52.006;4.374;2023-07-20T01:43:26;15.50;99.90
17178;DHT22;8704;52.006;4.374;2023-07-20T01:45:54;15.40;1.00
17178;DHT22;8704;52.006;4.374;2023-07-20T01:48:23;15.40;1.00
17178;DHT22;8704;52.006;4.374;2023-07-20T01:50:52;15.40;1.00
17178;DHT22;8704;52.006;4.374;2023-07-20T01:53:20;15.30;1.00
17178;DHT22;8704;52.006;4.374;2023-07-20T01:55:49;15.30;1.00
17178;DHT22;8704;52.006;4.374;2023-07-20T01:58:17;15.30;1.00
17178;DHT22;8704;52.006;4.374;2023-07-20T02:00:45;15.30;1.00
17178;DHT22;8704;52.006;4.374;2023-07-20T02:03:13;15.30;1.00
17178;DHT22;8704;52.006;4.374;2023-07-20T02:05:42;15.30;1.00
17178;DHT22;8704;52.006;4.374;2023-07-20T02:08:12;15.30;1.00
17178;DHT22;8704;52.006;4.374;2023-07-20T02:10:40;15.30;1.00
17178;DHT22;8704;52.006;4.374;2023-07-20T02:13:09;15.40;1.00
17178;DHT22;8704;52.006;4.374;2023-07-20T02:15:37;15.40;1.00
17178;DHT22;8704;52.006;4.374;2023-07-20T02:18:05;15.40;1.00
17178;DHT22;8704;52.006;4.374;2023-07-20T02:20:33;15.30;76.70
17178;DHT22;8704;52.006;4.374;2023-07-20T02:23:01;15.30;59.30
17178;DHT22;8704;52.006;4.374;2023-07-20T02:25:30;15.30;30.00
17178;DHT22;8704;52.006;4.374;2023-07-20T02:27:59;15.20;1.00
17178;DHT22;8704;52.006;4.374;2023-07-20T02:30:27;15.20;1.00
17178;DHT22;8704;52.006;4.374;2023-07-20T02:32:55;15.20;1.00
17178;DHT22;8704;52.006;4.374;2023-07-20T02:35:25;15.20;1.00
17178;DHT22;8704;52.006;4.374;2023-07-20T02:37:53;15.10;1.00
17178;DHT22;8704;52.006;4.374;2023-07-20T02:40:22;15.10;1.00
17178;DHT22;8704;52.006;4.374;2023-07-20T02:42:51;15.10;1.00
17178;DHT22;8704;52.006;4.374;2023-07-20T02:45:19;15.10;1.00
17178;DHT22;8704;52.006;4.374;2023-07-20T02:47:47;15.00;1.00
17178;DHT22;8704;52.006;4.374;2023-07-20T02:50:16;15.00;1.00
17178;DHT22;8704;52.006;4.374;2023-07-20T02:52:44;15.00;1.00
17178;DHT22;8704;52.006;4.374;2023-07-20T02:55:12;15.00;1.00
17178;DHT22;8704;52.006;4.374;2023-07-20T02:57:40;15.00;1.00
17178;DHT22;8704;52.006;4.374;2023-07-20T03:00:11;14.90;1.00
17178;DHT22;8704;52.006;4.374;2023-07-20T03:02:42;14.90;1.00
17178;DHT22;8704;52.006;4.374;2023-07-20T03:05:10;14.90;1.00
17178;DHT22;8704;52.006;4.374;2023-07-20T03:07:38;14.90;1.00
17178;DHT22;8704;52.006;4.374;2023-07-20T03:10:07;14.90;1.00
17178;DHT22;8704;52.006;4.374;2023-07-20T03:12:36;14.90;1.00
17178;DHT22;8704;52.006;4.374;2023-07-20T03:15:05;14.80;1.00
17178;DHT22;8704;52.006;4.374;2023-07-20T03:17:35;14.80;1.00
17178;DHT22;8704;52.006;4.374;2023-07-20T03:20:04;14.80;1.00
17178;DHT22;8704;52.006;4.374;2023-07-20T03:22:35;14.80;1.00
17178;DHT22;8704;52.006;4.374;2023-07-20T03:25:04;14.70;1.00
17178;DHT22;8704;52.006;4.374;2023-07-20T03:27:33;14.70;1.00
17178;DHT22;8704;52.006;4.374;2023-07-20T03:30:01;14.70;1.00
17178;DHT22;8704;52.006;4.374;2023-07-20T03:32:29;14.70;1.00
17178;DHT22;8704;52.006;4.374;2023-07-20T03:34:58;14.60;1.00
17178;DHT22;8704;52.006;4.374;2023-07-20T03:37:26;14.60;1.00
17178;DHT22;8704;52.006;4.374;2023-07-20T03:39:55;14.60;1.00
17178;DHT22;8704;52.006;4.374;2023-07-20T03:42:23;14.50;1.00
17178;DHT22;8704;52.006;4.374;2023-07-20T03:44:51;14.50;1.00
17178;DHT22;8704;52.006;4.374;2023-07-20T03:47:19;14.50;1.00
17178;DHT22;8704;52.006;4.374;2023-07-20T03:49:47;14.50;33.90
17178;DHT22;8704;52.006;4.374;2023-07-20T03:52:16;14.50;53.50
17178;DHT22;8704;52.006;4.374;2023-07-20T03:54:45;14.50;80.10
17178;DHT22;8704;52.006;4.374;2023-07-20T03:57:13;14.50;58.70
17178;DHT22;8704;52.006;4.374;2023-07-20T03:59:45;14.40;3.80
17178;DHT22;8704;52.006;4.374;2023-07-20T04:02:13;14.40;1.00
17178;DHT22;8704;52.006;4.374;2023-07-20T04:04:41;14.50;99.90
17178;DHT22;8704;52.006;4.374;2023-07-20T04:07:09;14.50;99.90
17178;DHT22;8704;52.006;4.374;2023-07-20T04:09:37;14.40;99.90
17178;DHT22;8704;52.006;4.374;2023-07-20T04:12:06;14.40;99.90
17178;DHT22;8704;52.006;4.374;2023-07-20T04:14:34;14.40;99.90
17178;DHT22;8704;52.006;4.374;2023-07-20T04:17:03;14.40;99.90
17178;DHT22;8704;52.006;4.374;2023-07-20T04:19:32;14.40;99.90
17178;DHT22;8704;52.006;4.374;2023-07-20T04:22:00;14.50;99.90
17178;DHT22;8704;52.006;4.374;2023-07-20T04:24:29;14.40;99.90
17178;DHT22;8704;52.006;4.374;2023-07-20T04:26:58;14.40;99.90
17178;DHT22;8704;52.006;4.374;2023-07-20T04:29:26;14.40;99.90
17178;DHT22;8704;52.006;4.374;2023-07-20T04:31:54;14.40;99.90
17178;DHT22;8704;52.006;4.374;2023-07-20T04:34:22;14.40;99.90
17178;DHT22;8704;52.006;4.374;2023-07-20T04:36:50;14.40;99.90
17178;DHT22;8704;52.006;4.374;2023-07-20T04:39:19;14.40;99.90
17178;DHT22;8704;52.006;4.374;2023-07-20T04:41:58;14.40;99.90
17178;DHT22;8704;52.006;4.374;2023-07-20T04:44:26;14.40;99.90
17178;DHT22;8704;52.006;4.374;2023-07-20T04:46:54;14.40;99.90
17178;DHT22;8704;52.006;4.374;2023-07-20T04:49:23;14.40;99.90
17178;DHT22;8704;52.006;4.374;2023-07-20T04:51:51;14.40;99.90
17178;DHT22;8704;52.006;4.374;2023-07-20T04:54:19;14.50;99.90
17178;DHT22;8704;52.006;4.374;2023-07-20T04:56:47;14.40;99.90
17178;DHT22;8704;52.006;4.374;2023-07-20T04:59:18;14.40;99.90
17178;DHT22;8704;52.006;4.374;2023-07-20T05:01:47;14.50;99.90
17178;DHT22;8704;52.006;4.374;2023-07-20T05:04:15;14.50;99.90
17178;DHT22;8704;52.006;4.374;2023-07-20T05:06:44;14.60;1.00
17178;DHT22;8704;52.006;4.374;2023-07-20T05:09:13;14.60;1.00
17178;DHT22;8704;52.006;4.374;2023-07-20T05:11:41;14.60;1.00
17178;DHT22;8704;52.006;4.374;2023-07-20T05:14:09;14.70;1.00
17178;DHT22;8704;52.006;4.374;2023-07-20T05:16:38;14.70;1.00
17178;DHT22;8704;52.006;4.374;2023-07-20T05:19:06;14.80;37.60
17178;DHT22;8704;52.006;4.374;2023-07-20T05:21:34;14.90;99.90
17178;DHT22;8704;52.006;4.374;2023-07-20T05:24:03;15.00;99.90
17178;DHT22;8704;52.006;4.374;2023-07-20T05:26:32;15.00;99.90
17178;DHT22;8704;52.006;4.374;2023-07-20T05:29:00;15.10;99.90
17178;DHT22;8704;52.006;4.374;2023-07-20T05:31:28;15.20;99.90
17178;DHT22;8704;52.006;4.374;2023-07-20T05:33:59;15.20;99.90
17178;DHT22;8704;52.006;4.374;2023-07-20T05:36:27;15.30;99.90
17178;DHT22;8704;52.006;4.374;2023-07-20T05:38:57;15.40;99.90
17178;DHT22;8704;52.006;4.374;2023-07-20T05:41:25;15.40;99.90
17178;DHT22;8704;52.006;4.374;2023-07-20T05:43:54;15.50;99.90
17178;DHT22;8704;52.006;4.374;2023-07-20T05:46:22;15.50;99.90
17178;DHT22;8704;52.006;4.374;2023-07-20T05:48:52;15.60;99.90
17178;DHT22;8704;52.006;4.374;2023-07-20T05:51:22;15.60;1.00
17178;DHT22;8704;52.006;4.374;2023-07-20T05:53:50;15.70;1.00
17178;DHT22;8704;52.006;4.374;2023-07-20T05:56:18;15.70;1.00
17178;DHT22;8704;52.006;4.374;2023-07-20T05:58:46;15.70;99.90
17178;DHT22;8704;52.006;4.374;2023-07-20T06:01:14;15.80;99.90
17178;DHT22;8704;52.006;4.374;2023-07-20T06:03:42;15.90;99.90
17178;DHT22;8704;52.006;4.374;2023-07-20T06:06:10;15.90;1.00
17178;DHT22;8704;52.006;4.374;2023-07-20T06:08:41;16.00;1.00
17178;DHT22;8704;52.006;4.374;2023-07-20T06:11:10;16.00;1.00
17178;DHT22;8704;52.006;4.374;2023-07-20T06:13:38;16.10;1.00
17178;DHT22;8704;52.006;4.374;2023-07-20T06:16:06;16.10;1.00
17178;DHT22;8704;52.006;4.374;2023-07-20T06:18:34;16.10;1.00
17178;DHT22;8704;52.006;4.374;2023-07-20T06:21:02;16.20;1.00
17178;DHT22;8704;52.006;4.374;2023-07-20T06:23:30;16.20;1.00
17178;DHT22;8704;52.006;4.374;2023-07-20T06:26:00;16.20;1.00
17178;DHT22;8704;52.006;4.374;2023-07-20T06:28:28;16.20;1.00
17178;DHT22;8704;52.006;4.374;2023-07-20T06:30:59;16.20;1.00
17178;DHT22;8704;52.006;4.374;2023-07-20T06:33:27;16.20;1.00
17178;DHT22;8704;52.006;4.374;2023-07-20T06:35:56;16.20;1.00
17178;DHT22;8704;52.006;4.374;2023-07-20T06:38:24;16.30;1.00
17178;DHT22;8704;52.006;4.374;2023-07-20T06:40:56;16.30;1.00
17178;DHT22;8704;52.006;4.374;2023-07-20T06:43:46;16.40;1.00
17178;DHT22;8704;52.006;4.374;2023-07-20T06:46:15;16.40;1.00
17178;DHT22;8704;52.006;4.374;2023-07-20T06:48:43;16.50;1.00
17178;DHT22;8704;52.006;4.374;2023-07-20T06:51:14;16.50;1.00
17178;DHT22;8704;52.006;4.374;2023-07-20T06:53:43;16.60;1.00
17178;DHT22;8704;52.006;4.374;2023-07-20T06:56:11;16.60;99.90
17178;DHT22;8704;52.006;4.374;2023-07-20T06:58:39;16.70;99.90
17178;DHT22;8704;52.006;4.374;2023-07-20T07:01:09;16.70;99.90
17178;DHT22;8704;52.006;4.374;2023-07-20T07:03:37;16.80;99.90
17178;DHT22;8704;52.006;4.374;2023-07-20T07:06:05;16.90;99.90
17178;DHT22;8704;52.006;4.374;2023-07-20T07:08:33;17.60;99.90
17178;DHT22;8704;52.006;4.374;2023-07-20T07:11:02;17.00;99.90
17178;DHT22;8704;52.006;4.374;2023-07-20T07:13:30;17.10;99.90
17178;DHT22;8704;52.006;4.374;2023-07-20T07:15:58;17.20;99.90
17178;DHT22;8704;52.006;4.374;2023-07-20T07:18:28;17.20;99.90
17178;DHT22;8704;52.006;4.374;2023-07-20T07:20:57;17.20;94.40
17178;DHT22;8704;52.006;4.374;2023-07-20T07:23:29;17.30;85.60
17178;DHT22;8704;52.006;4.374;2023-07-20T07:25:57;17.30;67.40
17178;DHT22;8704;52.006;4.374;2023-07-20T07:28:25;17.40;52.50
17178;DHT22;8704;52.006;4.374;2023-07-20T07:30:55;17.40;1.00
17178;DHT22;8704;52.006;4.374;2023-07-20T07:33:23;17.50;1.00
17178;DHT22;8704;52.006;4.374;2023-07-20T07:35:53;17.50;1.00
17178;DHT22;8704;52.006;4.374;2023-07-20T07:38:21;17.50;1.00
17178;DHT22;8704;52.006;4.374;2023-07-20T07:41:09;17.50;1.00
17178;DHT22;8704;52.006;4.374;2023-07-20T07:43:37;17.50;1.00
17178;DHT22;8704;52.006;4.374;2023-07-20T07:46:06;17.30;1.00
17178;DHT22;8704;52.006;4.374;2023-07-20T07:48:34;17.20;1.00
17178;DHT22;8704;52.006;4.374;2023-07-20T07:51:04;17.20;1.00
17178;DHT22;8704;52.006;4.374;2023-07-20T07:53:32;17.20;1.00
17178;DHT22;8704;52.006;4.374;2023-07-20T07:56:02;17.20;1.00
17178;DHT22;8704;52.006;4.374;2023-07-20T07:58:30;17.20;1.00
17178;DHT22;8704;52.006;4.374;2023-07-20T08:00:58;17.10;1.00
17178;DHT22;8704;52.006;4.374;2023-07-20T08:03:26;17.20;1.00
17178;DHT22;8704;52.006;4.374;2023-07-20T08:05:55;17.30;1.00
17178;DHT22;8704;52.006;4.374;2023-07-20T08:08:24;17.30;1.00
17178;DHT22;8704;52.006;4.374;2023-07-20T08:10:53;17.30;1.00
17178;DHT22;8704;52.006;4.374;2023-07-20T08:13:22;17.40;1.00
17178;DHT22;8704;52.006;4.374;2023-07-20T08:15:51;17.40;1.00
17178;DHT22;8704;52.006;4.374;2023-07-20T08:18:19;17.50;1.00
17178;DHT22;8704;52.006;4.374;2023-07-20T08:20:47;17.50;1.00
17178;DHT22;8704;52.006;4.374;2023-07-20T08:23:16;17.60;1.00
17178;DHT22;8704;52.006;4.374;2023-07-20T08:25:45;17.70;1.00
17178;DHT22;8704;52.006;4.374;2023-07-20T08:28:15;17.80;1.00
17178;DHT22;8704;52.006;4.374;2023-07-20T08:30:44;17.80;1.00
17178;DHT22;8704;52.006;4.374;2023-07-20T08:33:14;17.80;1.00
17178;DHT22;8704;52.006;4.374;2023-07-20T08:35:43;17.90;1.00
17178;DHT22;8704;52.006;4.374;2023-07-20T08:38:11;18.00;1.00
17178;DHT22;8704;52.006;4.374;2023-07-20T08:40:40;18.00;1.00
17178;DHT22;8704;52.006;4.374;2023-07-20T08:43:10;18.10;1.00
17178;DHT22;8704;52.006;4.374;2023-07-20T08:45:40;18.30;1.00
17178;DHT22;8704;52.006;4.374;2023-07-20T08:48:09;18.40;1.00
17178;DHT22;8704;52.006;4.374;2023-07-20T08:50:38;18.40;1.00
17178;DHT22;8704;52.006;4.374;2023-07-20T08:53:08;18.40;1.00
17178;DHT22;8704;52.006;4.374;2023-07-20T08:55:39;18.60;1.00
17178;DHT22;8704;52.006;4.374;2023-07-20T08:58:10;18.60;1.00
17178;DHT22;8704;52.006;4.374;2023-07-20T09:00:39;18.60;1.00
17178;DHT22;8704;52.006;4.374;2023-07-20T09:03:12;18.60;1.00
17178;DHT22;8704;52.006;4.374;2023-07-20T09:05:41;18.60;1.00
17178;DHT22;8704;52.006;4.374;2023-07-20T09:08:09;18.60;1.00
17178;DHT22;8704;52.006;4.374;2023-07-20T09:10:37;18.60;1.00
17178;DHT22;8704;52.006;4.374;2023-07-20T09:13:05;18.60;1.00
17178;DHT22;8704;52.006;4.374;2023-07-20T09:15:37;18.60;1.00
17178;DHT22;8704;52.006;4.374;2023-07-20T09:18:05;18.80;1.00
17178;DHT22;8704;52.006;4.374;2023-07-20T09:20:34;18.80;1.00
17178;DHT22;8704;52.006;4.374;2023-07-20T09:23:04;19.00;1.00
17178;DHT22;8704;52.006;4.374;2023-07-20T09:25:33;19.00;1.00
17178;DHT22;8704;52.006;4.374;2023-07-20T09:28:03;19.20;1.00
17178;DHT22;8704;52.006;4.374;2023-07-20T09:30:32;19.30;1.00
17178;DHT22;8704;52.006;4.374;2023-07-20T09:33:01;19.40;1.00
17178;DHT22;8704;52.006;4.374;2023-07-20T09:35:30;19.30;1.00
17178;DHT22;8704;52.006;4.374;2023-07-20T09:38:08;19.40;1.00
17178;DHT22;8704;52.006;4.374;2023-07-20T09:40:40;19.50;1.00
17178;DHT22;8704;52.006;4.374;2023-07-20T09:43:11;19.40;1.00
17178;DHT22;8704;52.006;4.374;2023-07-20T09:45:42;19.60;1.00
17178;DHT22;8704;52.006;4.374;2023-07-20T09:48:15;19.60;1.00
17178;DHT22;8704;52.006;4.374;2023-07-20T09:50:49;19.60;1.00
17178;DHT22;8704;52.006;4.374;2023-07-20T09:53:18;19.60;1.00
17178;DHT22;8704;52.006;4.374;2023-07-20T09:55:47;19.70;1.00
17178;DHT22;8704;52.006;4.374;2023-07-20T09:58:17;19.70;1.00
17178;DHT22;8704;52.006;4.374;2023-07-20T10:00:46;19.80;1.00
17178;DHT22;8704;52.006;4.374;2023-07-20T10:03:22;20.10;1.00
17178;DHT22;8704;52.006;4.374;2023-07-20T10:05:58;20.00;1.00
17178;DHT22;8704;52.006;4.374;2023-07-20T10:08:29;20.00;1.00
17178;DHT22;8704;52.006;4.374;2023-07-20T10:11:02;19.90;1.00
17178;DHT22;8704;52.006;4.374;2023-07-20T10:13:30;20.10;1.00
17178;DHT22;8704;52.006;4.374;2023-07-20T10:16:03;20.20;1.00
17178;DHT22;8704;52.006;4.374;2023-07-20T10:18:44;20.50;1.00
17178;DHT22;8704;52.006;4.374;2023-07-20T10:21:20;20.80;1.00
17178;DHT22;8704;52.006;4.374;2023-07-20T10:23:53;20.90;1.00
17178;DHT22;8704;52.006;4.374;2023-07-20T10:26:24;20.80;1.00
17178;DHT22;8704;52.006;4.374;2023-07-20T10:28:53;20.90;1.00
17178;DHT22;8704;52.006;4.374;2023-07-20T10:31:23;20.80;1.00
17178;DHT22;8704;52.006;4.374;2023-07-20T10:33:53;20.80;1.00
17178;DHT22;8704;52.006;4.374;2023-07-20T10:36:25;21.00;1.00
17178;DHT22;8704;52.006;4.374;2023-07-20T10:38:58;21.00;1.00
17178;DHT22;8704;52.006;4.374;2023-07-20T10:41:28;21.20;1.00
17178;DHT22;8704;52.006;4.374;2023-07-20T10:44:01;21.30;1.00
17178;DHT22;8704;52.006;4.374;2023-07-20T10:46:41;21.30;1.00
17178;DHT22;8704;52.006;4.374;2023-07-20T10:49:12;21.40;1.00
17178;DHT22;8704;52.006;4.374;2023-07-20T10:51:42;21.40;1.00
17178;DHT22;8704;52.006;4.374;2023-07-20T10:54:46;21.60;1.00
17178;DHT22;8704;52.006;4.374;2023-07-20T10:57:28;21.70;1.00
17178;DHT22;8704;52.006;4.374;2023-07-20T11:00:12;21.60;1.00
17178;DHT22;8704;52.006;4.374;2023-07-20T11:02:45;21.70;1.00
17178;DHT22;8704;52.006;4.374;2023-07-20T11:05:38;21.70;1.00
17178;DHT22;8704;52.006;4.374;2023-07-20T11:08:10;21.80;1.00
17178;DHT22;8704;52.006;4.374;2023-07-20T11:10:39;21.90;1.00
17178;DHT22;8704;52.006;4.374;2023-07-20T11:13:21;22.00;1.00
17178;DHT22;8704;52.006;4.374;2023-07-20T11:16:02;22.10;1.00
17178;DHT22;8704;52.006;4.374;2023-07-20T11:18:34;22.10;1.00
17178;DHT22;8704;52.006;4.374;2023-07-20T11:21:11;22.20;1.00
17178;DHT22;8704;52.006;4.374;2023-07-20T11:23:39;22.20;1.00
17178;DHT22;8704;52.006;4.374;2023-07-20T11:26:08;22.40;1.00
17178;DHT22;8704;52.006;4.374;2023-07-20T11:28:36;22.50;1.00
17178;DHT22;8704;52.006;4.374;2023-07-20T11:31:04;22.30;1.00
17178;DHT22;8704;52.006;4.374;2023-07-20T11:33:33;22.40;1.00
17178;DHT22;8704;52.006;4.374;2023-07-20T11:36:01;22.60;1.00
17178;DHT22;8704;52.006;4.374;2023-07-20T11:38:51;22.90;1.00
17178;DHT22;8704;52.006;4.374;2023-07-20T11:41:19;22.70;1.00
17178;DHT22;8704;52.006;4.374;2023-07-20T11:43:48;22.60;1.00
17178;DHT22;8704;52.006;4.374;2023-07-20T11:46:16;22.90;1.00
17178;DHT22;8704;52.006;4.374;2023-07-20T11:48:44;23.20;1.00
17178;DHT22;8704;52.006;4.374;2023-07-20T11:51:15;23.40;1.00
17178;DHT22;8704;52.006;4.374;2023-07-20T11:53:44;23.40;1.00
17178;DHT22;8704;52.006;4.374;2023-07-20T11:56:15;23.60;1.00
17178;DHT22;8704;52.006;4.374;2023-07-20T11:58:44;23.70;1.00
17178;DHT22;8704;52.006;4.374;2023-07-20T12:01:12;24.00;1.00
17178;DHT22;8704;52.006;4.374;2023-07-20T12:03:42;24.20;1.00
17178;DHT22;8704;52.006;4.374;2023-07-20T12:06:13;24.10;1.00
17178;DHT22;8704;52.006;4.374;2023-07-20T12:08:42;24.30;1.00
17178;DHT22;8704;52.006;4.374;2023-07-20T12:11:11;24.30;1.00
17178;DHT22;8704;52.006;4.374;2023-07-20T12:13:42;24.40;1.00
17178;DHT22;8704;52.006;4.374;2023-07-20T12:16:11;24.30;1.00
17178;DHT22;8704;52.006;4.374;2023-07-20T12:18:40;24.90;1.00
17178;DHT22;8704;52.006;4.374;2023-07-20T12:21:09;25.10;1.00
17178;DHT22;8704;52.006;4.374;2023-07-20T12:23:38;25.30;1.00
17178;DHT22;8704;52.006;4.374;2023-07-20T12:26:07;25.10;1.00
17178;DHT22;8704;52.006;4.374;2023-07-20T12:28:40;25.10;1.00
17178;DHT22;8704;52.006;4.374;2023-07-20T12:31:09;24.80;1.00
17178;DHT22;8704;52.006;4.374;2023-07-20T12:33:37;24.60;1.00
17178;DHT22;8704;52.006;4.374;2023-07-20T12:36:06;24.80;1.00
17178;DHT22;8704;52.006;4.374;2023-07-20T12:38:34;25.00;1.00
17178;DHT22;8704;52.006;4.374;2023-07-20T12:41:03;25.30;1.00
17178;DHT22;8704;52.006;4.374;2023-07-20T12:43:31;25.30;1.00
17178;DHT22;8704;52.006;4.374;2023-07-20T12:46:01;25.30;1.00
17178;DHT22;8704;52.006;4.374;2023-07-20T12:48:29;25.40;1.00
17178;DHT22;8704;52.006;4.374;2023-07-20T12:50:57;25.20;1.00
17178;DHT22;8704;52.006;4.374;2023-07-20T12:53:25;25.50;1.00
17178;DHT22;8704;52.006;4.374;2023-07-20T12:55:54;25.60;1.00
17178;DHT22;8704;52.006;4.374;2023-07-20T12:58:22;25.80;1.00
17178;DHT22;8704;52.006;4.374;2023-07-20T13:00:50;25.60;1.00
17178;DHT22;8704;52.006;4.374;2023-07-20T13:03:20;25.50;1.00
17178;DHT22;8704;52.006;4.374;2023-07-20T13:05:50;25.00;1.00
17178;DHT22;8704;52.006;4.374;2023-07-20T13:08:23;25.70;1.00
17178;DHT22;8704;52.006;4.374;2023-07-20T13:10:52;25.30;1.00
17178;DHT22;8704;52.006;4.374;2023-07-20T13:13:20;25.60;1.00
17178;DHT22;8704;52.006;4.374;2023-07-20T13:15:48;25.40;1.00
17178;DHT22;8704;52.006;4.374;2023-07-20T13:18:17;25.70;1.00
17178;DHT22;8704;52.006;4.374;2023-07-20T13:20:47;25.90;1.00
17178;DHT22;8704;52.006;4.374;2023-07-20T13:23:15;26.40;1.00
17178;DHT22;8704;52.006;4.374;2023-07-20T13:25:43;27.00;1.00
17178;DHT22;8704;52.006;4.374;2023-07-20T13:28:11;26.90;1.00
17178;DHT22;8704;52.006;4.374;2023-07-20T13:30:39;26.90;1.00
17178;DHT22;8704;52.006;4.374;2023-07-20T13:33:07;26.90;1.00
17178;DHT22;8704;52.006;4.374;2023-07-20T13:35:39;27.20;1.00
17178;DHT22;8704;52.006;4.374;2023-07-20T13:38:12;27.50;1.00
17178;DHT22;8704;52.006;4.374;2023-07-20T13:40:41;27.70;1.00
17178;DHT22;8704;52.006;4.374;2023-07-20T13:43:10;27.90;1.00
17178;DHT22;8704;52.006;4.374;2023-07-20T13:45:39;27.50;1.00
17178;DHT22;8704;52.006;4.374;2023-07-20T13:48:08;27.40;1.00
17178;DHT22;8704;52.006;4.374;2023-07-20T13:50:36;27.60;1.00
17178;DHT22;8704;52.006;4.374;2023-07-20T13:53:25;27.40;1.00
17178;DHT22;8704;52.006;4.374;2023-07-20T13:55:57;27.70;1.00
17178;DHT22;8704;52.006;4.374;2023-07-20T13:58:28;26.90;1.00
17178;DHT22;8704;52.006;4.374;2023-07-20T14:00:57;28.00;1.00
17178;DHT22;8704;52.006;4.374;2023-07-20T14:03:26;28.10;1.00
17178;DHT22;8704;52.006;4.374;2023-07-20T14:05:54;27.80;1.00
17178;DHT22;8704;52.006;4.374;2023-07-20T14:08:27;28.50;1.00
17178;DHT22;8704;52.006;4.374;2023-07-20T14:10:57;28.50;1.00
17178;DHT22;8704;52.006;4.374;2023-07-20T14:13:28;28.50;1.00
17178;DHT22;8704;52.006;4.374;2023-07-20T14:16:13;29.10;1.00
17178;DHT22;8704;52.006;4.374;2023-07-20T14:18:41;28.60;1.00
17178;DHT22;8704;52.006;4.374;2023-07-20T14:21:09;28.80;1.00
17178;DHT22;8704;52.006;4.374;2023-07-20T14:23:38;29.50;1.00
17178;DHT22;8704;52.006;4.374;2023-07-20T14:26:07;30.00;1.00
17178;DHT22;8704;52.006;4.374;2023-07-20T14:28:48;29.10;1.00
17178;DHT22;8704;52.006;4.374;2023-07-20T14:31:16;29.20;1.00
17178;DHT22;8704;52.006;4.374;2023-07-20T14:33:45;29.60;1.00
17178;DHT22;8704;52.006;4.374;2023-07-20T14:36:13;28.80;1.00
17178;DHT22;8704;52.006;4.374;2023-07-20T14:38:43;29.10;1.00
17178;DHT22;8704;52.006;4.374;2023-07-20T14:41:11;28.70;1.00
17178;DHT22;8704;52.006;4.374;2023-07-20T14:43:40;29.00;1.00
17178;DHT22;8704;52.006;4.374;2023-07-20T14:46:08;28.60;1.00
17178;DHT22;8704;52.006;4.374;2023-07-20T14:48:36;28.20;1.00
17178;DHT22;8704;52.006;4.374;2023-07-20T14:51:04;28.00;1.00
17178;DHT22;8704;52.006;4.374;2023-07-20T14:53:32;28.00;1.00
17178;DHT22;8704;52.006;4.374;2023-07-20T14:56:04;27.80;1.00
17178;DHT22;8704;52.006;4.374;2023-07-20T14:58:32;27.80;1.00
17178;DHT22;8704;52.006;4.374;2023-07-20T15:01:02;27.70;1.00
17178;DHT22;8704;52.006;4.374;2023-07-20T15:03:31;27.40;1.00
17178;DHT22;8704;52.006;4.374;2023-07-20T15:06:01;26.40;1.00
17178;DHT22;8704;52.006;4.374;2023-07-20T15:08:30;26.30;1.00
17178;DHT22;8704;52.006;4.374;2023-07-20T15:10:58;26.70;1.00
17178;DHT22;8704;52.006;4.374;2023-07-20T15:13:28;26.70;1.00
17178;DHT22;8704;52.006;4.374;2023-07-20T15:15:57;26.40;1.00
17178;DHT22;8704;52.006;4.374;2023-07-20T15:18:25;26.60;1.00
17178;DHT22;8704;52.006;4.374;2023-07-20T15:21:13;26.90;1.00
17178;DHT22;8704;52.006;4.374;2023-07-20T15:23:41;27.50;1.00
17178;DHT22;8704;52.006;4.374;2023-07-20T15:26:09;27.70;1.00
17178;DHT22;8704;52.006;4.374;2023-07-20T15:28:39;27.90;1.00
17178;DHT22;8704;52.006;4.374;2023-07-20T15:31:08;28.60;1.00
17178;DHT22;8704;52.006;4.374;2023-07-20T15:33:36;29.00;1.00
17178;DHT22;8704;52.006;4.374;2023-07-20T15:36:06;29.10;1.00
17178;DHT22;8704;52.006;4.374;2023-07-20T15:38:35;29.00;1.00
17178;DHT22;8704;52.006;4.374;2023-07-20T15:41:03;29.30;1.00
17178;DHT22;8704;52.006;4.374;2023-07-20T15:43:31;29.60;1.00
17178;DHT22;8704;52.006;4.374;2023-07-20T15:49:10;29.80;1.00
17178;DHT22;8704;52.006;4.374;2023-07-20T15:51:41;30.10;1.00
17178;DHT22;8704;52.006;4.374;2023-07-20T15:54:10;30.60;1.00
17178;DHT22;8704;52.006;4.374;2023-07-20T15:56:39;30.50;1.00
17178;DHT22;8704;52.006;4.374;2023-07-20T15:59:09;30.90;1.00
17178;DHT22;8704;52.006;4.374;2023-07-20T16:01:39;31.10;1.00
17178;DHT22;8704;52.006;4.374;2023-07-20T16:04:09;31.20;1.00
17178;DHT22;8704;52.006;4.374;2023-07-20T16:06:37;31.00;1.00
17178;DHT22;8704;52.006;4.374;2023-07-20T16:09:05;31.30;1.00
17178;DHT22;8704;52.006;4.374;2023-07-20T16:11:34;31.60;1.00
17178;DHT22;8704;52.006;4.374;2023-07-20T16:14:05;31.40;1.00
17178;DHT22;8704;52.006;4.374;2023-07-20T16:16:34;31.20;1.00
17178;DHT22;8704;52.006;4.374;2023-07-20T16:19:04;30.30;1.00